Jasper, Alabama
Current Conditions -  °F | °C
As of 11:15 AM on Thursday 27 Nov 2014 (Local Time) from KJFX Reporting Station
Broken Clouds Broken Clouds  
Wind Chill: 41°   Ceiling: 3600
Heat Index: 46°   Visibility: 10mi
Dew Point: 32°   Wind: 10mph
Humidity: 57%   Direction: 330°NNW
Pressure: 30.41"   Gusts: NA
Location:  33.83°N, 87.28°W
Report Text: KJFX 271715Z AUTO 33009KT 10SM BKN036 08/00 A3041 RMK A02 P-128
Loading
Personal Weather Stations






























Interactive Weather Map New forecast layout! Learn more

10-Day Weather Forecast

Advertisements
Track Severe Weather on mobile